| time (UTC) | temp C | wind direction | speed KPH | gust KPH | rain 1hr cm | rain 24hr cm | rain mn cm | humidity % | barometer mb |
| 20260510162550 | 13 | 30 | 4.8 | 12.9 | 0.00 | 0.00 | 0.00 | 54 | 1015.4 |
| 20260510162049 | 13 | 17 | 3.2 | 6.4 | 0.00 | 0.00 | 0.00 | 55 | 1015.3 |
| 20260510161604 | 13 | 11 | 6.4 | 11.3 | 0.00 | 0.00 | 0.00 | 54 | 1015.5 |
| 20260510160608 | 13 | 1 | 6.4 | 11.3 | 0.00 | 0.00 | 0.00 | 54 | 1015.6 |
| 20260510160113 | 13 | 7 | 9.7 | 17.7 | 0.00 | 0.00 | 0.00 | 54 | 1015.6 |
| 20260510155557 | 13 | 50 | 3.2 | 4.8 | 0.00 | 0.00 | 0.00 | 55 | 1015.7 |
| 20260510155057 | 13 | 61 | 6.4 | 9.7 | 0.00 | 0.00 | 0.00 | 55 | 1015.7 |
| 20260510154557 | 13 | 50 | 11.3 | 22.5 | 0.00 | 0.00 | 0.00 | 56 | 1015.9 |
| 20260510154057 | 13 | 53 | 9.7 | 17.7 | 0.00 | 0.00 | 0.00 | 56 | 1016.1 |
| 20260510153609 | 13 | 84 | 4.8 | 12.9 | 0.00 | 0.00 | 0.00 | 57 | 1016.0 |
| 20260510153058 | 13 | 79 | 9.7 | 16.1 | 0.00 | 0.00 | 0.00 | 57 | 1016.0 |
| 20260510152558 | 13 | 77 | 8.0 | 14.5 | 0.00 | 0.00 | 0.00 | 58 | 1016.1 |
| 20260510152053 | 13 | 53 | 3.2 | 6.4 | 0.00 | 0.00 | 0.00 | 58 | 1016.2 |
| 20260510151553 | 13 | 67 | 6.4 | 9.7 | 0.00 | 0.00 | 0.00 | 58 | 1016.1 |
| 20260510151052 | 13 | 98 | 4.8 | 11.3 | 0.00 | 0.00 | 0.00 | 57 | 1016.2 |
| 20260510150552 | 13 | 102 | 4.8 | 14.5 | 0.00 | 0.00 | 0.00 | 56 | 1016.4 |
| 20260510150106 | 13 | 126 | 4.8 | 12.9 | 0.00 | 0.00 | 0.00 | 57 | 1016.4 |
| 20260510145551 | 13 | 108 | 4.8 | 8.0 | 0.00 | 0.00 | 0.00 | 57 | 1016.3 |
| 20260510145051 | 13 | 133 | 4.8 | 9.7 | 0.00 | 0.00 | 0.00 | 58 | 1016.4 |
| 20260510144550 | 13 | 151 | 9.7 | 14.5 | 0.00 | 0.00 | 0.00 | 58 | 1016.4 |
| 20260510144050 | 13 | 76 | 6.4 | 9.7 | 0.00 | 0.00 | 0.00 | 59 | 1016.4 |
| 20260510143604 | 13 | 74 | 3.2 | 14.5 | 0.00 | 0.00 | 0.00 | 59 | 1016.5 |
| 20260510143049 | 13 | 44 | 6.4 | 12.9 | 0.00 | 0.00 | 0.00 | 60 | 1016.5 |
| 20260510142603 | 13 | 50 | 3.2 | 6.4 | 0.00 | 0.00 | 0.00 | 60 | 1016.6 |
| 20260510142053 | 13 | 42 | 3.2 | 6.4 | 0.00 | 0.00 | 0.00 | 59 | 1016.6 |
| 20260510141609 | 13 | 50 | 9.7 | 17.7 | 0.00 | 0.00 | 0.00 | 58 | 1016.6 |
| 20260510141102 | 13 | 63 | 6.4 | 9.7 | 0.00 | 0.00 | 0.00 | 59 | 1016.7 |
| 20260510140602 | 13 | 37 | 3.2 | 8.0 | 0.00 | 0.00 | 0.00 | 61 | 1016.8 |
| 20260510140117 | 13 | 38 | 6.4 | 12.9 | 0.00 | 0.00 | 0.00 | 62 | 1017.0 |
| 20260510135601 | 13 | 66 | 6.4 | 11.3 | 0.00 | 0.00 | 0.00 | 62 | 1016.7 |
| 20260510135101 | 13 | 71 | 3.2 | 6.4 | 0.00 | 0.00 | 0.00 | 61 | 1016.7 |
| 20260510134601 | 13 | 79 | 9.7 | 17.7 | 0.00 | 0.00 | 0.00 | 62 | 1016.6 |
| 20260510134058 | 13 | 71 | 9.7 | 12.9 | 0.00 | 0.00 | 0.00 | 61 | 1016.9 |
| 20260510133612 | 13 | 92 | 3.2 | 4.8 | 0.00 | 0.00 | 0.00 | 62 | 1016.7 |
| 20260510133109 | 13 | 81 | 9.7 | 14.5 | 0.00 | 0.00 | 0.00 | 63 | 1016.8 |
| 20260510132602 | 13 | 38 | 8.0 | 12.9 | 0.00 | 0.00 | 0.00 | 63 | 1017.0 |
| 20260510132101 | 13 | 32 | 3.2 | 4.8 | 0.00 | 0.00 | 0.00 | 63 | 1017.0 |
| 20260510131601 | 12 | 40 | 4.8 | 8.0 | 0.00 | 0.00 | 0.00 | 63 | 1016.9 |
| 20260510131101 | 12 | 33 | 3.2 | 8.0 | 0.00 | 0.00 | 0.00 | 63 | 1016.9 |
| 20260510130550 | 12 | 24 | 3.2 | 8.0 | 0.00 | 0.00 | 0.00 | 63 | 1017.1 |
| 20260510130120 | 12 | 24 | 9.7 | 19.3 | 0.00 | 0.00 | 0.00 | 64 | 1017.1 |
| 20260510125550 | 12 | 61 | 3.2 | 4.8 | 0.00 | 0.00 | 0.00 | 63 | 1017.0 |
| 20260510125104 | 12 | 63 | 6.4 | 17.7 | 0.00 | 0.00 | 0.00 | 64 | 1017.3 |
| 20260510124554 | 12 | 71 | 6.4 | 12.9 | 0.00 | 0.00 | 0.00 | 63 | 1017.2 |
| 20260510124108 | 13 | 45 | 6.4 | 11.3 | 0.00 | 0.00 | 0.00 | 64 | 1017.2 |
| 20260510123603 | 13 | 68 | 6.4 | 9.7 | 0.00 | 0.00 | 0.00 | 64 | 1017.3 |
| 20260510123102 | 13 | 71 | 6.4 | 12.9 | 0.00 | 0.00 | 0.00 | 63 | 1017.3 |
| 20260510122602 | 13 | 48 | 4.8 | 9.7 | 0.00 | 0.00 | 0.00 | 64 | 1017.2 |
| 20260510122102 | 13 | 57 | 4.8 | 6.4 | 0.00 | 0.00 | 0.00 | 65 | 1017.2 |
| 20260510121601 | 13 | 84 | 8.0 | 12.9 | 0.00 | 0.00 | 0.00 | 66 | 1017.3 |
| 20260510121101 | 12 | 119 | 8.0 | 12.9 | 0.00 | 0.00 | 0.00 | 66 | 1017.2 |
| 20260510120601 | 12 | 155 | 3.2 | 9.7 | 0.00 | 0.00 | 0.00 | 68 | 1017.4 |
| 20260510120115 | 12 | 133 | 6.4 | 11.3 | 0.00 | 0.00 | 0.00 | 67 | 1017.3 |
| 20260510115600 | 12 | 156 | 6.4 | 12.9 | 0.00 | 0.00 | 0.00 | 66 | 1017.5 |
| 20260510115059 | 13 | 158 | 9.7 | 12.9 | 0.00 | 0.00 | 0.00 | 65 | 1017.5 |
| 20260510114559 | 13 | 119 | 8.0 | 17.7 | 0.00 | 0.00 | 0.00 | 64 | 1017.4 |
| 20260510114058 | 13 | 77 | 6.4 | 12.9 | 0.00 | 0.00 | 0.00 | 64 | 1017.8 |
| 20260510113558 | 13 | 67 | 11.3 | 17.7 | 0.00 | 0.00 | 0.00 | 64 | 1017.7 |
| 20260510113058 | 13 | 76 | 6.4 | 12.9 | 0.00 | 0.00 | 0.00 | 63 | 1017.6 |
| 20260510112612 | 13 | 68 | 8.0 | 19.3 | 0.00 | 0.00 | 0.00 | 63 | 1017.8 |
| 20260510112102 | 13 | 60 | 8.0 | 17.7 | 0.00 | 0.00 | 0.00 | 61 | 1017.7 |
| 20260510111602 | 14 | 70 | 12.9 | 27.4 | 0.00 | 0.00 | 0.00 | 61 | 1017.7 |
| 20260510111051 | 14 | 58 | 3.2 | 4.8 | 0.00 | 0.00 | 0.00 | 61 | 1017.7 |
| 20260510110551 | 14 | 63 | 9.7 | 12.9 | 0.00 | 0.00 | 0.00 | 61 | 1017.7 |
| 20260510110120 | 14 | 71 | 4.8 | 9.7 | 0.00 | 0.00 | 0.00 | 61 | 1018.0 |
| 20260510105550 | 14 | 81 | 4.8 | 9.7 | 0.00 | 0.00 | 0.00 | 61 | 1017.6 |
| 20260510105050 | 14 | 80 | 8.0 | 14.5 | 0.00 | 0.00 | 0.00 | 62 | 1017.9 |
| 20260510104549 | 14 | 68 | 11.3 | 16.1 | 0.00 | 0.00 | 0.00 | 63 | 1017.9 |
| 20260510104049 | 13 | 54 | 6.4 | 11.3 | 0.00 | 0.00 | 0.00 | 64 | 1017.8 |
| 20260510103604 | 13 | 45 | 6.4 | 14.5 | 0.00 | 0.00 | 0.00 | 63 | 1018.0 |
| 20260510103103 | 13 | 44 | 11.3 | 19.3 | 0.00 | 0.00 | 0.00 | 62 | 1018.0 |
| 20260510102553 | 14 | 50 | 11.3 | 17.7 | 0.00 | 0.00 | 0.00 | 61 | 1018.0 |
| 20260510102052 | 15 | 39 | 12.9 | 20.9 | 0.00 | 0.00 | 0.00 | 62 | 1018.0 |
| 20260510101552 | 14 | 65 | 11.3 | 14.5 | 0.00 | 0.00 | 0.00 | 62 | 1017.9 |
| 20260510101052 | 14 | 77 | 6.4 | 17.7 | 0.00 | 0.00 | 0.00 | 63 | 1018.0 |
| 20260510100551 | 13 | 80 | 3.2 | 6.4 | 0.00 | 0.00 | 0.00 | 64 | 1018.0 |
| 20260510100121 | 14 | 86 | 14.5 | 19.3 | 0.00 | 0.00 | 0.00 | 62 | 1017.9 |
| 20260510095551 | 13 | 76 | 11.3 | 16.1 | 0.00 | 0.00 | 0.00 | 62 | 1017.8 |
| 20260510095105 | 13 | 19 | 4.8 | 14.5 | 0.00 | 0.00 | 0.00 | 62 | 1018.0 |
| 20260510094555 | 13 | 5 | 6.4 | 12.9 | 0.00 | 0.00 | 0.00 | 62 | 1017.9 |
| 20260510094109 | 14 | 359 | 8.0 | 12.9 | 0.00 | 0.00 | 0.00 | 62 | 1018.0 |
| 20260510093559 | 13 | 14 | 1.6 | 3.2 | 0.00 | 0.00 | 0.00 | 64 | 1017.9 |
| 20260510093058 | 13 | 21 | 3.2 | 6.4 | 0.00 | 0.00 | 0.00 | 64 | 1018.0 |
| 20260510092603 | 13 | 27 | 11.3 | 17.7 | 0.00 | 0.00 | 0.00 | 63 | 1018.1 |
| 20260510092053 | 13 | 40 | 6.4 | 11.3 | 0.00 | 0.00 | 0.00 | 62 | 1018.1 |
| 20260510091607 | 14 | 52 | 12.9 | 20.9 | 0.00 | 0.00 | 0.00 | 61 | 1018.2 |
| 20260510091057 | 13 | 62 | 12.9 | 17.7 | 0.00 | 0.00 | 0.00 | 62 | 1018.2 |
| 20260510090556 | 13 | 35 | 8.0 | 12.9 | 0.00 | 0.00 | 0.00 | 65 | 1018.3 |
| 20260510090126 | 13 | 36 | 1.6 | 3.2 | 0.00 | 0.00 | 0.00 | 65 | 1018.2 |
| 20260510085556 | 13 | 40 | 6.4 | 17.7 | 0.00 | 0.00 | 0.00 | 66 | 1018.3 |
| 20260510085055 | 13 | 52 | 6.4 | 12.9 | 0.00 | 0.00 | 0.00 | 66 | 1018.3 |
| 20260510084555 | 13 | 72 | 6.4 | 12.9 | 0.00 | 0.00 | 0.00 | 66 | 1018.5 |
| 20260510084109 | 12 | 57 | 6.4 | 12.9 | 0.00 | 0.00 | 0.00 | 66 | 1018.6 |
| 20260510083559 | 13 | 61 | 8.0 | 14.5 | 0.00 | 0.00 | 0.00 | 68 | 1018.5 |
| 20260510083059 | 12 | 35 | 8.0 | 12.9 | 0.00 | 0.00 | 0.00 | 68 | 1018.6 |
| 20260510082558 | 12 | 40 | 6.4 | 11.3 | 0.00 | 0.00 | 0.00 | 68 | 1018.6 |
| 20260510082058 | 12 | 66 | 6.4 | 9.7 | 0.00 | 0.00 | 0.00 | 69 | 1018.4 |
| 20260510081558 | 12 | 54 | 3.2 | 6.4 | 0.00 | 0.00 | 0.00 | 69 | 1018.5 |
| 20260510081112 | 12 | 46 | 4.8 | 11.3 | 0.00 | 0.00 | 0.00 | 70 | 1018.6 |
| 20260510080602 | 12 | 53 | 6.4 | 11.3 | 0.00 | 0.00 | 0.00 | 70 | 1018.5 |
| 20260510080132 | 11 | 78 | 8.0 | 16.1 | 0.00 | 0.00 | 0.00 | 72 | 1018.6 |
| 20260510075551 | 11 | 60 | 17.7 | 25.7 | 0.00 | 0.00 | 0.00 | 73 | 1018.7 |
| 20260510075051 | 11 | 79 | 6.4 | 14.5 | 0.00 | 0.00 | 0.00 | 74 | 1018.7 |
| 20260510074550 | 11 | 94 | 4.8 | 12.9 | 0.00 | 0.00 | 0.00 | 75 | 1018.6 |
| 20260510074050 | 11 | 89 | 11.3 | 12.9 | 0.00 | 0.00 | 0.00 | 76 | 1018.7 |
| 20260510073549 | 11 | 93 | 8.0 | 16.1 | 0.00 | 0.00 | 0.00 | 76 | 1018.5 |
| 20260510073049 | 11 | 70 | 6.4 | 9.7 | 0.00 | 0.00 | 0.00 | 76 | 1018.7 |
| 20260510072548 | 11 | 52 | 4.8 | 12.9 | 0.00 | 0.00 | 0.00 | 77 | 1018.6 |
| 20260510072103 | 11 | 58 | 4.8 | 6.4 | 0.00 | 0.00 | 0.00 | 78 | 1018.5 |
| 20260510071602 | 11 | 75 | 6.4 | 11.3 | 0.00 | 0.00 | 0.00 | 77 | 1018.5 |
| 20260510071102 | 11 | 80 | 11.3 | 17.7 | 0.00 | 0.00 | 0.00 | 77 | 1018.6 |
| 20260510070601 | 11 | 27 | 3.2 | 6.4 | 0.00 | 0.00 | 0.00 | 78 | 1018.5 |
| 20260510070116 | 11 | 8 | 6.4 | 11.3 | 0.00 | 0.00 | 0.00 | 79 | 1018.6 |
| 20260510065600 | 11 | 26 | 3.2 | 6.4 | 0.00 | 0.00 | 0.00 | 79 | 1018.3 |
| 20260510065100 | 11 | 28 | 3.2 | 9.7 | 0.00 | 0.00 | 0.00 | 79 | 1018.5 |
| 20260510064559 | 10 | 45 | 8.0 | 12.9 | 0.00 | 0.00 | 0.00 | 80 | 1018.5 |
| 20260510064059 | 10 | 74 | 6.4 | 11.3 | 0.00 | 0.00 | 0.00 | 80 | 1018.5 |
| 20260510063559 | 10 | 62 | 3.2 | 6.4 | 0.00 | 0.00 | 0.00 | 80 | 1018.3 |
| 20260510063058 | 10 | 56 | 6.4 | 9.7 | 0.00 | 0.00 | 0.00 | 80 | 1018.3 |
| 20260510062557 | 10 | 72 | 3.2 | 12.9 | 0.00 | 0.00 | 0.00 | 81 | 1018.3 |
| 20260510062057 | 10 | 72 | 6.4 | 11.3 | 0.00 | 0.00 | 0.00 | 81 | 1018.2 |
| 20260510061557 | 10 | 77 | 6.4 | 9.7 | 0.00 | 0.00 | 0.00 | 81 | 1018.2 |
| 20260510061111 | 10 | 70 | 0.0 | 3.2 | 0.00 | 0.00 | 0.00 | 81 | 1018.3 |
| 20260510060601 | 10 | 66 | 4.8 | 11.3 | 0.00 | 0.00 | 0.00 | 81 | 1018.3 |
| 20260510060116 | 10 | 67 | 6.4 | 11.3 | 0.00 | 0.00 | 0.00 | 82 | 1018.1 |
| 20260510055600 | 10 | 54 | 3.2 | 6.4 | 0.00 | 0.00 | 0.00 | 82 | 1018.2 |
| 20260510055100 | 10 | 59 | 3.2 | 6.4 | 0.00 | 0.00 | 0.00 | 82 | 1018.0 |
| 20260510054559 | 10 | 63 | 6.4 | 12.9 | 0.00 | 0.00 | 0.00 | 82 | 1018.0 |
| 20260510054104 | 10 | 60 | 3.2 | 6.4 | 0.00 | 0.00 | 0.00 | 82 | 1018.1 |
| 20260510053553 | 10 | 78 | 3.2 | 8.0 | 0.00 | 0.00 | 0.00 | 82 | 1018.2 |
| 20260510053108 | 10 | 72 | 3.2 | 6.4 | 0.00 | 0.00 | 0.00 | 82 | 1018.3 |
| 20260510052558 | 10 | 73 | 3.2 | 6.4 | 0.00 | 0.00 | 0.00 | 82 | 1018.2 |
| 20260510052057 | 10 | 59 | 1.6 | 3.2 | 0.00 | 0.00 | 0.00 | 82 | 1018.4 |
| 20260510051557 | 10 | 56 | 3.2 | 4.8 | 0.00 | 0.00 | 0.00 | 82 | 1018.3 |
| 20260510051056 | 10 | 45 | 6.4 | 12.9 | 0.00 | 0.00 | 0.00 | 82 | 1018.2 |
| 20260510050555 | 10 | 70 | 4.8 | 9.7 | 0.00 | 0.00 | 0.00 | 82 | 1018.4 |
| 20260510050125 | 10 | 56 | 3.2 | 6.4 | 0.00 | 0.00 | 0.00 | 82 | 1018.3 |
| 20260510045554 | 10 | 26 | 4.8 | 9.7 | 0.00 | 0.00 | 0.00 | 82 | 1018.2 |
| 20260510045054 | 10 | 348 | 4.8 | 11.3 | 0.00 | 0.00 | 0.00 | 82 | 1018.1 |
| 20260510044553 | 10 | 345 | 4.8 | 8.0 | 0.00 | 0.00 | 0.00 | 82 | 1018.2 |
| 20260510044053 | 10 | 332 | 3.2 | 6.4 | 0.00 | 0.00 | 0.00 | 82 | 1018.1 |
| 20260510043552 | 10 | 3 | 3.2 | 6.4 | 0.00 | 0.00 | 0.00 | 82 | 1018.2 |
| 20260510043052 | 10 | 10 | 3.2 | 4.8 | 0.00 | 0.00 | 0.00 | 82 | 1018.3 |
| 20260510042551 | 10 | 3 | 3.2 | 4.8 | 0.00 | 0.00 | 0.00 | 82 | 1018.4 |
| 20260510042106 | 10 | 18 | 3.2 | 4.8 | 0.00 | 0.00 | 0.00 | 83 | 1018.1 |
| 20260510041556 | 10 | 20 | 4.8 | 8.0 | 0.00 | 0.00 | 0.00 | 82 | 1018.3 |
| 20260510041055 | 10 | 45 | 3.2 | 3.2 | 0.00 | 0.00 | 0.00 | 82 | 1018.3 |
| 20260510040555 | 10 | 63 | 3.2 | 3.2 | 0.00 | 0.00 | 0.00 | 82 | 1018.3 |
| 20260510040124 | 10 | 81 | 3.2 | 6.4 | 0.00 | 0.00 | 0.00 | 82 | 1018.5 |
| 20260510035559 | 10 | 65 | 6.4 | 9.7 | 0.00 | 0.00 | 0.00 | 81 | 1018.3 |
| 20260510035059 | 10 | 93 | 6.4 | 14.5 | 0.00 | 0.00 | 0.00 | 81 | 1018.5 |
| 20260510034558 | 10 | 90 | 6.4 | 6.4 | 0.00 | 0.00 | 0.00 | 81 | 1018.5 |
| 20260510034058 | 10 | 96 | 4.8 | 8.0 | 0.00 | 0.00 | 0.00 | 81 | 1018.6 |
| 20260510033558 | 10 | 129 | 4.8 | 11.3 | 0.00 | 0.00 | 0.00 | 81 | 1018.6 |
| 20260510033057 | 10 | 328 | 3.2 | 6.4 | 0.00 | 0.00 | 0.00 | 81 | 1018.6 |
| 20260510032557 | 10 | 39 | 3.2 | 6.4 | 0.00 | 0.00 | 0.00 | 81 | 1018.6 |
| 20260510032111 | 10 | 73 | 4.8 | 6.4 | 0.00 | 0.00 | 0.00 | 81 | 1018.7 |
| 20260510031601 | 10 | 119 | 3.2 | 4.8 | 0.00 | 0.00 | 0.00 | 81 | 1018.7 |
| 20260510031100 | 10 | 105 | 3.2 | 6.4 | 0.00 | 0.00 | 0.00 | 80 | 1018.5 |
| 20260510030559 | 10 | 85 | 1.6 | 4.8 | 0.00 | 0.00 | 0.00 | 80 | 1018.7 |
| 20260510030114 | 10 | 87 | 3.2 | 6.4 | 0.00 | 0.00 | 0.00 | 80 | 1018.5 |
| 20260510025559 | 10 | 94 | 4.8 | 9.7 | 0.00 | 0.00 | 0.00 | 80 | 1018.8 |
| 20260510025058 | 10 | 64 | 4.8 | 6.4 | 0.00 | 0.00 | 0.00 | 80 | 1018.6 |
| 20260510024627 | 10 | 52 | 3.2 | 9.7 | 0.00 | 0.00 | 0.00 | 80 | 1018.5 |
| 20260510024056 | 10 | 54 | 3.2 | 6.4 | 0.00 | 0.00 | 0.00 | 80 | 1018.7 |
| 20260510023556 | 10 | 43 | 3.2 | 6.4 | 0.00 | 0.00 | 0.00 | 80 | 1018.6 |
| 20260510023055 | 10 | 41 | 8.0 | 14.5 | 0.00 | 0.00 | 0.00 | 80 | 1018.7 |
| 20260510022555 | 10 | 36 | 6.4 | 8.0 | 0.00 | 0.00 | 0.00 | 80 | 1018.6 |
| 20260510022054 | 10 | 350 | 1.6 | 3.2 | 0.00 | 0.00 | 0.00 | 80 | 1018.6 |
| 20260510021609 | 10 | 351 | 0.0 | 3.2 | 0.00 | 0.00 | 0.00 | 80 | 1018.6 |
| 20260510021058 | 10 | 4 | 1.6 | 3.2 | 0.00 | 0.00 | 0.00 | 81 | 1018.7 |
| 20260510020612 | 10 | 13 | 1.6 | 3.2 | 0.00 | 0.00 | 0.00 | 81 | 1018.6 |
| 20260510020132 | 10 | 18 | 3.2 | 8.0 | 0.00 | 0.00 | 0.00 | 81 | 1018.6 |
| 20260510015606 | 10 | 19 | 3.2 | 6.4 | 0.00 | 0.00 | 0.00 | 82 | 1018.6 |
| 20260510015111 | 10 | 35 | 6.4 | 12.9 | 0.00 | 0.00 | 0.00 | 82 | 1018.6 |
| 20260510014601 | 10 | 56 | 6.4 | 9.7 | 0.00 | 0.00 | 0.00 | 82 | 1018.7 |
| 20260510014100 | 10 | 66 | 4.8 | 9.7 | 0.00 | 0.00 | 0.00 | 82 | 1018.8 |
| 20260510013550 | 10 | 39 | 3.2 | 6.4 | 0.00 | 0.00 | 0.00 | 82 | 1018.9 |
| 20260510013050 | 10 | 42 | 1.6 | 3.2 | 0.00 | 0.00 | 0.00 | 82 | 1018.8 |
| 20260510012604 | 10 | 42 | 1.6 | 3.2 | 0.00 | 0.00 | 0.00 | 82 | 1019.0 |
| 20260510012054 | 10 | 56 | 3.2 | 4.8 | 0.00 | 0.00 | 0.00 | 81 | 1018.8 |
| 20260510011554 | 10 | 67 | 1.6 | 3.2 | 0.00 | 0.00 | 0.00 | 80 | 1018.9 |
| 20260510011054 | 10 | 75 | 4.8 | 6.4 | 0.00 | 0.00 | 0.00 | 80 | 1018.8 |
| 20260510010553 | 10 | 111 | 3.2 | 4.8 | 0.00 | 0.00 | 0.00 | 78 | 1018.9 |
| 20260510010123 | 10 | 102 | 3.2 | 6.4 | 0.00 | 0.00 | 0.00 | 76 | 1018.7 |
| 20260510005552 | 10 | 123 | 3.2 | 4.8 | 0.00 | 0.00 | 0.00 | 74 | 1018.7 |
| 20260510005052 | 11 | 93 | 3.2 | 6.4 | 0.00 | 0.00 | 0.00 | 73 | 1018.5 |
| 20260510004552 | 11 | 73 | 3.2 | 6.4 | 0.00 | 0.00 | 0.00 | 72 | 1018.6 |
| 20260510004052 | 11 | 56 | 3.2 | 4.8 | 0.00 | 0.00 | 0.00 | 71 | 1018.8 |
| 20260510003551 | 11 | 46 | 6.4 | 9.7 | 0.00 | 0.00 | 0.00 | 69 | 1018.8 |
| 20260510003051 | 11 | 39 | 1.6 | 3.2 | 0.00 | 0.00 | 0.00 | 67 | 1018.6 |
| 20260510002551 | 11 | 36 | 6.4 | 11.3 | 0.00 | 0.00 | 0.00 | 63 | 1018.8 |
| 20260510002105 | 11 | 14 | 3.2 | 8.0 | 0.00 | 0.00 | 0.00 | 63 | 1018.7 |
| 20260510001555 | 11 | 32 | 3.2 | 9.7 | 0.00 | 0.00 | 0.00 | 62 | 1018.6 |
| 20260510001055 | 11 | 18 | 3.2 | 4.8 | 0.00 | 0.00 | 0.00 | 61 | 1018.6 |
| 20260510000554 | 12 | 359 | 3.2 | 6.4 | 0.00 | 0.00 | 0.00 | 58 | 1018.7 |
| 20260510000123 | 12 | 28 | 6.4 | 12.9 | 0.00 | 0.00 | 0.00 | 55 | 1018.8 |
| 20260509235557 | 12 | 62 | 3.2 | 6.4 | 0.00 | 0.00 | 0.00 | 54 | 1018.6 |
| 20260509235047 | 12 | 77 | 4.8 | 8.0 | 0.00 | 0.00 | 0.00 | 53 | 1018.6 |
| 20260509234546 | 12 | 37 | 3.2 | 6.4 | 0.00 | 0.00 | 0.00 | 53 | 1018.6 |
| 20260509234101 | 12 | 65 | 3.2 | 4.8 | 0.00 | 0.00 | 0.00 | 53 | 1018.4 |
| 20260509233605 | 12 | 73 | 6.4 | 12.9 | 0.00 | 0.00 | 0.00 | 53 | 1018.5 |
| 20260509233055 | 12 | 55 | 6.4 | 11.3 | 0.00 | 0.00 | 0.00 | 53 | 1018.5 |
| 20260509232559 | 12 | 67 | 1.6 | 3.2 | 0.00 | 0.00 | 0.00 | 54 | 1018.5 |
| 20260509232049 | 13 | 67 | 3.2 | 4.8 | 0.00 | 0.00 | 0.00 | 54 | 1018.5 |
| 20260509231604 | 13 | 52 | 3.2 | 11.3 | 0.00 | 0.00 | 0.00 | 53 | 1018.5 |
| 20260509231053 | 13 | 38 | 3.2 | 6.4 | 0.00 | 0.00 | 0.00 | 53 | 1018.5 |
| 20260509230553 | 13 | 70 | 3.2 | 6.4 | 0.00 | 0.00 | 0.00 | 53 | 1018.5 |
| 20260509230107 | 13 | 78 | 3.2 | 4.8 | 0.00 | 0.00 | 0.00 | 53 | 1018.5 |
| 20260509225552 | 13 | 90 | 4.8 | 9.7 | 0.00 | 0.00 | 0.00 | 52 | 1018.3 |
| 20260509225052 | 13 | 72 | 0.0 | 1.6 | 0.00 | 0.00 | 0.00 | 52 | 1018.6 |
| 20260509224551 | 13 | 71 | 3.2 | 4.8 | 0.00 | 0.00 | 0.00 | 52 | 1018.3 |
| 20260509224106 | 13 | 71 | 6.4 | 8.0 | 0.00 | 0.00 | 0.00 | 52 | 1018.3 |
| 20260509223555 | 13 | 53 | 3.2 | 6.4 | 0.00 | 0.00 | 0.00 | 52 | 1018.3 |
| 20260509223055 | 13 | 61 | 1.6 | 3.2 | 0.00 | 0.00 | 0.00 | 52 | 1018.4 |
| 20260509222554 | 13 | 63 | 0.0 | 3.2 | 0.00 | 0.00 | 0.00 | 52 | 1018.3 |
| 20260509222054 | 13 | 50 | 1.6 | 3.2 | 0.00 | 0.00 | 0.00 | 52 | 1018.4 |
| 20260509221608 | 13 | 53 | 1.6 | 4.8 | 0.00 | 0.00 | 0.00 | 52 | 1018.3 |
| 20260509221058 | 13 | 52 | 3.2 | 6.4 | 0.00 | 0.00 | 0.00 | 51 | 1018.3 |
| 20260509220557 | 13 | 22 | 1.6 | 3.2 | 0.00 | 0.00 | 0.00 | 51 | 1018.2 |
| 20260509220112 | 14 | 27 | 3.2 | 3.2 | 0.00 | 0.00 | 0.00 | 51 | 1018.3 |
| 20260509215556 | 14 | 354 | 3.2 | 6.4 | 0.00 | 0.00 | 0.00 | 51 | 1018.2 |
| 20260509215056 | 14 | 143 | 3.2 | 4.8 | 0.00 | 0.00 | 0.00 | 51 | 1018.5 |
| 20260509214556 | 14 | 94 | 1.6 | 3.2 | 0.00 | 0.00 | 0.00 | 52 | 1018.5 |
| 20260509214056 | 14 | 105 | 3.2 | 6.4 | 0.00 | 0.00 | 0.00 | 52 | 1018.5 |
| 20260509213555 | 15 | 62 | 3.2 | 4.8 | 0.00 | 0.00 | 0.00 | 52 | 1018.3 |
| 20260509213110 | 15 | 41 | 1.6 | 3.2 | 0.00 | 0.00 | 0.00 | 51 | 1018.3 |
| 20260509212600 | 15 | 60 | 1.6 | 3.2 | 0.00 | 0.00 | 0.00 | 50 | 1018.3 |
| 20260509212059 | 15 | 105 | 0.0 | 1.6 | 0.00 | 0.00 | 0.00 | 50 | 1018.1 |
| 20260509211559 | 15 | 89 | 1.6 | 3.2 | 0.00 | 0.00 | 0.00 | 50 | 1018.1 |
| 20260509211058 | 15 | 90 | 3.2 | 6.4 | 0.00 | 0.00 | 0.00 | 50 | 1018.0 |
| 20260509210557 | 15 | 106 | 3.2 | 4.8 | 0.00 | 0.00 | 0.00 | 50 | 1018.0 |
| 20260509210112 | 15 | 117 | 6.4 | 8.0 | 0.00 | 0.00 | 0.00 | 50 | 1017.8 |
| 20260509205557 | 15 | 73 | 3.2 | 6.4 | 0.00 | 0.00 | 0.00 | 49 | 1017.8 |
| 20260509205056 | 15 | 51 | 4.8 | 6.4 | 0.00 | 0.00 | 0.00 | 49 | 1017.9 |
| 20260509204611 | 15 | 56 | 4.8 | 6.4 | 0.00 | 0.00 | 0.00 | 49 | 1017.8 |
| 20260509204100 | 15 | 63 | 3.2 | 6.4 | 0.00 | 0.00 | 0.00 | 48 | 1017.8 |
| 20260509203600 | 15 | 32 | 1.6 | 3.2 | 0.00 | 0.00 | 0.00 | 47 | 1017.8 |
| 20260509203100 | 16 | 32 | 0.0 | 3.2 | 0.00 | 0.00 | 0.00 | 46 | 1017.6 |
| 20260509202559 | 16 | 37 | 0.0 | 3.2 | 0.00 | 0.00 | 0.00 | 45 | 1017.6 |
| 20260509202104 | 16 | 44 | 1.6 | 3.2 | 0.00 | 0.00 | 0.00 | 45 | 1017.7 |
| 20260509201603 | 16 | 50 | 3.2 | 6.4 | 0.00 | 0.00 | 0.00 | 45 | 1017.7 |
| 20260509201102 | 16 | 85 | 3.2 | 4.8 | 0.00 | 0.00 | 0.00 | 45 | 1017.7 |
| 20260509200602 | 16 | 117 | 3.2 | 6.4 | 0.00 | 0.00 | 0.00 | 45 | 1017.7 |
| 20260509200117 | 16 | 172 | 3.2 | 4.8 | 0.00 | 0.00 | 0.00 | 44 | 1017.7 |
| 20260509195601 | 16 | 165 | 3.2 | 3.2 | 0.00 | 0.00 | 0.00 | 44 | 1017.2 |
| 20260509195101 | 16 | 211 | 3.2 | 4.8 | 0.00 | 0.00 | 0.00 | 44 | 1017.2 |
| 20260509194550 | 17 | 236 | 3.2 | 6.4 | 0.00 | 0.00 | 0.00 | 43 | 1017.2 |
| 20260509194105 | 17 | 19 | 1.6 | 3.2 | 0.00 | 0.00 | 0.00 | 43 | 1017.2 |
| 20260509193554 | 17 | 351 | 1.6 | 3.2 | 0.00 | 0.00 | 0.00 | 42 | 1017.2 |
| 20260509193054 | 17 | 16 | 0.0 | 3.2 | 0.00 | 0.00 | 0.00 | 42 | 1017.0 |
| 20260509192554 | 17 | 22 | 3.2 | 4.8 | 0.00 | 0.00 | 0.00 | 41 | 1017.1 |
| 20260509192053 | 18 | 48 | 3.2 | 12.9 | 0.00 | 0.00 | 0.00 | 42 | 1017.0 |
| 20260509191552 | 18 | 83 | 3.2 | 3.2 | 0.00 | 0.00 | 0.00 | 42 | 1017.2 |
| 20260509191052 | 18 | 158 | 1.6 | 4.8 | 0.00 | 0.00 | 0.00 | 41 | 1016.9 |
| 20260509190607 | 18 | 186 | 3.2 | 4.8 | 0.00 | 0.00 | 0.00 | 41 | 1016.9 |
| 20260509190111 | 18 | 176 | 3.2 | 9.7 | 0.00 | 0.00 | 0.00 | 40 | 1016.9 |
| 20260509185556 | 19 | 165 | 1.6 | 3.2 | 0.00 | 0.00 | 0.00 | 38 | 1016.9 |
| 20260509185111 | 19 | 166 | 4.8 | 8.0 | 0.00 | 0.00 | 0.00 | 38 | 1016.9 |
| 20260509184600 | 19 | 139 | 3.2 | 4.8 | 0.00 | 0.00 | 0.00 | 38 | 1016.8 |
| 20260509184100 | 19 | 87 | 1.6 | 3.2 | 0.00 | 0.00 | 0.00 | 38 | 1016.7 |
| 20260509183559 | 19 | 93 | 3.2 | 6.4 | 0.00 | 0.00 | 0.00 | 40 | 1016.7 |
| 20260509183059 | 20 | 144 | 1.6 | 6.4 | 0.00 | 0.00 | 0.00 | 40 | 1016.6 |
| 20260509182559 | 20 | 148 | 4.8 | 9.7 | 0.00 | 0.00 | 0.00 | 39 | 1016.5 |
| 20260509182048 | 20 | 156 | 1.6 | 3.2 | 0.00 | 0.00 | 0.00 | 39 | 1016.5 |
| 20260509181603 | 20 | 135 | 1.6 | 3.2 | 0.00 | 0.00 | 0.00 | 37 | 1016.5 |
| 20260509181103 | 21 | 146 | 6.4 | 11.3 | 0.00 | 0.00 | 0.00 | 34 | 1016.6 |
| 20260509180603 | 21 | 194 | 6.4 | 12.9 | 0.00 | 0.00 | 0.00 | 34 | 1016.4 |
| 20260509180117 | 21 | 104 | 3.2 | 6.4 | 0.00 | 0.00 | 0.00 | 33 | 1016.4 |
| 20260509175551 | 21 | 130 | 8.0 | 14.5 | 0.00 | 0.00 | 0.00 | 32 | 1016.5 |
| 20260509175051 | 21 | 71 | 4.8 | 9.7 | 0.00 | 0.00 | 0.00 | 32 | 1016.4 |
| 20260509174551 | 21 | 80 | 3.2 | 6.4 | 0.00 | 0.00 | 0.00 | 33 | 1016.4 |
| 20260509174106 | 21 | 65 | 6.4 | 8.0 | 0.00 | 0.00 | 0.00 | 32 | 1016.3 |
| 20260509173555 | 22 | 50 | 4.8 | 6.4 | 0.00 | 0.00 | 0.00 | 31 | 1016.4 |
| 20260509173110 | 21 | 47 | 3.2 | 6.4 | 0.00 | 0.00 | 0.00 | 31 | 1016.2 |
| 20260509172600 | 22 | 30 | 3.2 | 8.0 | 0.00 | 0.00 | 0.00 | 30 | 1016.4 |
| 20260509172059 | 22 | 8 | 6.4 | 9.7 | 0.00 | 0.00 | 0.00 | 29 | 1016.2 |
| 20260509171604 | 22 | 73 | 6.4 | 11.3 | 0.00 | 0.00 | 0.00 | 29 | 1016.3 |
| 20260509171048 | 21 | 108 | 3.2 | 6.4 | 0.00 | 0.00 | 0.00 | 32 | 1016.3 |
| 20260509170603 | 21 | 83 | 3.2 | 6.4 | 0.00 | 0.00 | 0.00 | 32 | 1016.4 |
| 20260509170117 | 21 | 83 | 6.4 | 9.7 | 0.00 | 0.00 | 0.00 | 32 | 1016.5 |
| 20260509165602 | 21 | 85 | 4.8 | 11.3 | 0.00 | 0.00 | 0.00 | 32 | 1016.5 |
| 20260509165102 | 21 | 84 | 4.8 | 9.7 | 0.00 | 0.00 | 0.00 | 32 | 1016.5 |
| 20260509164607 | 21 | 79 | 3.2 | 4.8 | 0.00 | 0.00 | 0.00 | 32 | 1016.6 |
| 20260509164056 | 21 | 104 | 4.8 | 8.0 | 0.00 | 0.00 | 0.00 | 31 | 1016.5 |
| 20260509163556 | 21 | 111 | 3.2 | 6.4 | 0.00 | 0.00 | 0.00 | 31 | 1016.7 |
| 20260509163055 | 22 | 122 | 4.8 | 11.3 | 0.00 | 0.00 | 0.00 | 29 | 1016.6 |